Time;durP1;ratioP1;P1;durP2;ratioP2;P2;SDS_P1;SDS_P2;PMS_P1;PMS_P2;Temp;Humidity;BMP_temperature;BMP_pressure;BME280_temperature;BME280_humidity;BME280_pressure;Samples;Min_cycle;Max_cycle;Signal;HPM_P1;HPM_P2
2021/04/23 00:00:41;;;;;;;2.40;2.20;;;6.70;99.90;;;;;;5011618;28;20405;-76
2021/04/23 00:03:19;;;;;;;4.32;1.88;;;6.70;99.90;;;;;;5029829;28;20404;-77
2021/04/23 00:05:45;;;;;;;3.47;1.93;;;6.70;99.90;;;;;;5030292;28;20986;-76
2021/04/23 00:08:11;;;;;;;2.87;1.90;;;6.60;99.90;;;;;;5050316;28;20496;-76
2021/04/23 00:10:37;;;;;;;3.40;2.15;;;6.70;99.90;;;;;;5029814;28;21125;-76
2021/04/23 00:13:03;;;;;;;2.00;1.80;;;6.70;99.90;;;;;;5023665;28;20397;-76
2021/04/23 00:15:28;;;;;;;2.10;1.90;;;6.60;99.90;;;;;;4997152;28;20474;-75
2021/04/23 00:17:54;;;;;;;2.08;1.95;;;6.60;99.90;;;;;;5014965;28;20393;-76
2021/04/23 00:20:26;;;;;;;3.33;2.00;;;6.60;99.90;;;;;;5012462;28;20403;-76
2021/04/23 00:22:56;;;;;;;2.40;2.15;;;6.60;99.90;;;;;;4986713;28;20420;-76
2021/04/23 00:25:27;;;;;;;2.63;1.97;;;6.60;99.90;;;;;;5011069;28;20437;-76
2021/04/23 00:27:56;;;;;;;2.25;2.00;;;6.50;99.90;;;;;;5033141;28;20403;-76
2021/04/23 00:30:26;;;;;;;2.27;2.07;;;6.50;99.90;;;;;;5007381;28;20464;-76
2021/04/23 00:32:53;;;;;;;2.20;2.00;;;6.40;99.90;;;;;;4996208;28;20417;-77
2021/04/23 00:35:19;;;;;;;3.03;2.20;;;6.40;99.90;;;;;;4951336;28;20407;-76
2021/04/23 00:37:47;;;;;;;2.83;2.00;;;6.40;99.90;;;;;;5008902;28;20407;-76
2021/04/23 00:40:28;;;;;;;3.72;2.33;;;6.30;99.90;;;;;;5030586;28;20819;-76
2021/04/23 00:42:54;;;;;;;2.63;2.10;;;6.30;99.90;;;;;;5029165;28;20464;-77
2021/04/23 00:45:22;;;;;;;4.57;1.90;;;6.20;99.90;;;;;;5027139;28;20422;-77
2021/04/23 00:47:48;;;;;;;3.45;2.05;;;6.20;99.90;;;;;;5006459;28;20930;-77
2021/04/23 00:50:26;;;;;;;2.53;1.98;;;6.20;99.90;;;;;;5013192;28;20458;-76
2021/04/23 00:52:51;;;;;;;3.72;2.00;;;6.10;99.90;;;;;;5007909;28;20493;-76
2021/04/23 00:55:17;;;;;;;2.13;2.00;;;6.10;99.90;;;;;;5046844;28;20408;-76
2021/04/23 00:57:43;;;;;;;2.95;2.30;;;6.10;99.90;;;;;;4995656;28;20431;-76
2021/04/23 01:00:09;;;;;;;4.30;2.17;;;6.10;99.90;;;;;;5028191;28;20394;-76
2021/04/23 01:02:34;;;;;;;2.37;2.17;;;6.10;99.90;;;;;;5009834;28;20420;-77
2021/04/23 01:05:00;;;;;;;2.50;2.30;;;6.00;99.90;;;;;;5028033;28;21076;-76
2021/04/23 01:07:26;;;;;;;2.28;2.05;;;6.00;99.90;;;;;;5029327;28;20900;-76
2021/04/23 01:09:51;;;;;;;3.87;2.33;;;6.00;99.90;;;;;;4989313;28;20468;-76
2021/04/23 01:12:17;;;;;;;2.30;2.00;;;6.00;99.90;;;;;;5012781;28;20436;-76
2021/04/23 01:14:43;;;;;;;2.43;2.23;;;5.90;99.90;;;;;;5014812;28;20401;-76
2021/04/23 01:17:08;;;;;;;2.80;2.33;;;5.90;99.90;;;;;;4992446;28;20391;-76
2021/04/23 01:19:34;;;;;;;5.43;2.25;;;5.90;99.90;;;;;;4994559;28;20406;-77
2021/04/23 01:21:59;;;;;;;3.40;2.33;;;5.90;99.90;;;;;;4996573;28;20436;-76
2021/04/23 01:24:25;;;;;;;2.47;2.28;;;5.80;99.90;;;;;;5011327;28;20401;-77
2021/04/23 01:26:52;;;;;;;2.10;1.98;;;5.70;99.90;;;;;;5003110;28;20443;-76
2021/04/23 01:29:19;;;;;;;2.50;2.30;;;5.80;99.90;;;;;;5029473;28;20465;-76
2021/04/23 01:31:47;;;;;;;4.18;2.40;;;5.80;99.90;;;;;;5027463;28;20409;-77
2021/04/23 01:34:30;;;;;;;4.88;2.50;;;5.80;99.90;;;;;;5004102;28;20400;-76
2021/04/23 01:36:57;;;;;;;3.42;2.40;;;5.80;99.90;;;;;;5006880;28;20394;-77
2021/04/23 01:39:24;;;;;;;4.43;2.50;;;5.70;99.90;;;;;;5025655;28;20401;-76
2021/04/23 01:41:51;;;;;;;3.37;2.50;;;5.70;99.90;;;;;;5038341;28;20418;-76
2021/04/23 01:44:17;;;;;;;3.78;2.40;;;5.70;99.90;;;;;;5007729;28;20381;-75
2021/04/23 01:46:42;;;;;;;2.28;2.08;;;5.70;99.90;;;;;;4994376;28;20414;-76
2021/04/23 01:49:11;;;;;;;4.33;2.33;;;5.70;99.90;;;;;;4993585;28;20413;-74
2021/04/23 01:51:42;;;;;;;2.50;2.20;;;5.70;99.90;;;;;;5006828;28;20403;-76
2021/04/23 01:54:08;;;;;;;2.40;2.20;;;5.70;99.90;;;;;;4991599;28;20408;-76
2021/04/23 01:56:33;;;;;;;3.30;2.38;;;5.60;99.90;;;;;;5008397;28;20401;-76
2021/04/23 01:58:59;;;;;;;2.40;2.20;;;5.60;99.90;;;;;;5011089;28;20447;-75
2021/04/23 02:01:25;;;;;;;3.10;2.30;;;5.50;99.90;;;;;;4986714;28;20405;-76
2021/04/23 02:03:50;;;;;;;2.92;2.38;;;5.50;99.90;;;;;;5002969;28;20398;-76
2021/04/23 02:06:16;;;;;;;2.67;2.40;;;5.50;99.90;;;;;;5019929;28;20402;-76
2021/04/23 02:08:42;;;;;;;2.45;2.20;;;5.40;99.90;;;;;;5010756;28;20420;-77
2021/04/23 02:11:15;;;;;;;2.58;2.38;;;5.40;99.90;;;;;;4997350;28;20394;-77
2021/04/23 02:13:42;;;;;;;3.20;2.47;;;5.40;99.90;;;;;;4992717;28;20470;-77
2021/04/23 02:16:08;;;;;;;4.10;2.43;;;5.40;99.90;;;;;;4992442;28;20398;-77
2021/04/23 02:18:34;;;;;;;3.53;2.47;;;5.30;99.90;;;;;;4989534;28;20460;-76
2021/04/23 02:21:00;;;;;;;5.20;2.45;;;5.30;99.90;;;;;;4983329;28;20403;-76
2021/04/23 02:23:26;;;;;;;2.57;2.37;;;5.30;99.90;;;;;;4989866;28;20406;-77
2021/04/23 02:25:52;;;;;;;2.42;2.22;;;5.30;99.90;;;;;;5027033;28;20390;-76
2021/04/23 02:28:18;;;;;;;2.92;2.20;;;5.30;99.90;;;;;;5010265;28;20409;-75
2021/04/23 02:30:46;;;;;;;3.30;2.80;;;5.30;99.90;;;;;;5025530;28;21082;-76
2021/04/23 02:33:13;;;;;;;5.13;2.70;;;5.30;99.90;;;;;;5027271;28;20429;-76
2021/04/23 02:35:38;;;;;;;2.60;2.40;;;5.30;99.90;;;;;;5026147;28;20556;-76
2021/04/23 02:38:04;;;;;;;3.08;2.60;;;5.30;99.90;;;;;;5027435;28;20405;-76
2021/04/23 02:40:30;;;;;;;2.90;2.60;;;5.30;99.90;;;;;;5023299;28;20405;-75
2021/04/23 02:42:57;;;;;;;2.77;2.43;;;5.30;99.90;;;;;;5027156;28;20872;-75
2021/04/23 02:45:26;;;;;;;4.95;2.70;;;5.30;99.90;;;;;;4998065;28;20420;-76
2021/04/23 02:47:52;;;;;;;4.38;2.65;;;5.30;99.90;;;;;;5044077;28;20421;-75
2021/04/23 02:50:18;;;;;;;3.05;2.50;;;5.20;99.90;;;;;;5016880;28;20462;-76
2021/04/23 02:52:44;;;;;;;6.65;2.60;;;5.20;99.90;;;;;;4993371;28;20409;-76
2021/04/23 02:55:10;;;;;;;3.13;2.40;;;5.20;99.90;;;;;;5004739;28;20424;-76
2021/04/23 02:57:36;;;;;;;3.53;2.63;;;5.10;99.90;;;;;;5027083;28;20908;-76
2021/04/23 03:00:09;;;;;;;2.87;2.57;;;5.10;99.90;;;;;;5020162;28;20389;-76
2021/04/23 03:02:35;;;;;;;3.63;3.17;;;5.10;99.90;;;;;;4992702;28;20404;-76
2021/04/23 03:05:01;;;;;;;3.40;2.65;;;5.00;99.90;;;;;;5007206;28;20888;-75
2021/04/23 03:07:27;;;;;;;3.17;2.83;;;5.00;99.90;;;;;;5012517;28;20936;-76
2021/04/23 03:09:52;;;;;;;4.30;2.45;;;5.10;99.90;;;;;;4994443;28;20401;-75
2021/04/23 03:12:18;;;;;;;4.60;2.90;;;4.90;99.90;;;;;;4993330;28;20423;-75
2021/04/23 03:14:43;;;;;;;3.40;2.63;;;4.90;99.90;;;;;;5010361;28;20452;-75
2021/04/23 03:17:09;;;;;;;3.60;3.10;;;4.90;99.90;;;;;;4996571;28;20400;-76
2021/04/23 03:19:35;;;;;;;8.43;3.38;;;4.90;99.90;;;;;;5021042;28;20403;-75
2021/04/23 03:22:01;;;;;;;2.88;2.60;;;4.90;99.90;;;;;;5018914;28;20406;-75
2021/04/23 03:24:27;;;;;;;3.83;2.80;;;4.90;99.90;;;;;;5001322;28;20399;-76
2021/04/23 03:26:52;;;;;;;4.07;2.50;;;4.80;99.90;;;;;;5026690;28;20425;-76
2021/04/23 03:29:19;;;;;;;3.00;2.60;;;4.80;99.90;;;;;;5003272;28;20403;-75
2021/04/23 03:31:44;;;;;;;3.05;2.72;;;4.70;99.90;;;;;;5026954;28;20428;-76
2021/04/23 03:34:10;;;;;;;3.30;2.75;;;4.70;99.90;;;;;;5025504;28;20405;-76
2021/04/23 03:36:36;;;;;;;5.30;2.97;;;4.60;99.90;;;;;;4998154;28;20385;-76
2021/04/23 03:39:03;;;;;;;5.15;3.17;;;4.60;99.90;;;;;;4997331;28;20406;-76
2021/04/23 03:41:30;;;;;;;4.15;2.80;;;4.60;99.90;;;;;;5013833;28;20888;-76
2021/04/23 03:43:56;;;;;;;4.07;2.87;;;4.60;99.90;;;;;;4995266;28;20407;-76
2021/04/23 03:46:21;;;;;;;2.97;2.77;;;4.60;99.90;;;;;;4999072;28;20389;-76
2021/04/23 03:48:47;;;;;;;6.30;2.88;;;4.50;99.90;;;;;;5010938;28;20432;-76
2021/04/23 03:51:13;;;;;;;3.30;3.00;;;4.60;99.90;;;;;;5028825;28;20389;-76
2021/04/23 03:53:39;;;;;;;3.85;3.25;;;4.60;99.90;;;;;;4991002;28;20423;-75
2021/04/23 03:56:05;;;;;;;4.50;2.90;;;4.60;99.90;;;;;;5014195;28;20400;-76
2021/04/23 03:58:31;;;;;;;4.25;3.00;;;4.60;99.90;;;;;;5047267;28;20401;-76
2021/04/23 04:01:04;;;;;;;3.72;3.08;;;4.60;99.90;;;;;;5008634;28;20847;-74
2021/04/23 04:03:29;;;;;;;4.43;3.20;;;4.60;99.90;;;;;;5014522;28;20905;-76
2021/04/23 04:05:55;;;;;;;2.92;2.60;;;4.60;99.90;;;;;;4986178;28;20395;-77
2021/04/23 04:08:21;;;;;;;4.68;2.88;;;4.60;99.90;;;;;;5013911;28;20421;-76
2021/04/23 04:10:47;;;;;;;2.70;2.50;;;4.60;99.90;;;;;;5014867;28;20401;-77
2021/04/23 04:13:12;;;;;;;6.80;3.05;;;4.60;99.90;;;;;;4983848;28;20427;-78
2021/04/23 04:15:38;;;;;;;3.45;3.00;;;4.70;99.90;;;;;;5027197;28;20439;-78
2021/04/23 04:18:04;;;;;;;5.75;3.42;;;4.70;99.90;;;;;;5013550;28;20424;-77
2021/04/23 04:20:31;;;;;;;5.13;2.67;;;4.70;99.90;;;;;;5001500;28;20441;-75
2021/04/23 04:22:57;;;;;;;4.10;2.95;;;4.70;99.90;;;;;;5011779;28;20750;-76
2021/04/23 04:25:25;;;;;;;3.33;2.70;;;4.70;99.90;;;;;;4996065;28;20414;-76
2021/04/23 04:27:50;;;;;;;3.17;2.85;;;4.80;99.90;;;;;;5000913;28;20403;-76
2021/04/23 04:30:16;;;;;;;3.83;2.92;;;4.70;99.90;;;;;;4994772;28;20453;-74
2021/04/23 04:32:42;;;;;;;3.17;2.80;;;4.70;99.90;;;;;;5023701;28;20416;-75
2021/04/23 04:35:08;;;;;;;4.50;3.03;;;4.70;99.90;;;;;;4998154;28;20394;-75
2021/04/23 04:37:34;;;;;;;2.80;2.60;;;4.80;99.90;;;;;;5048734;28;20402;-75
2021/04/23 04:39:59;;;;;;;3.57;2.70;;;4.80;99.90;;;;;;5012167;28;20412;-75
2021/04/23 04:42:25;;;;;;;3.30;2.80;;;4.80;99.90;;;;;;5027476;28;20394;-76
2021/04/23 04:44:51;;;;;;;3.07;2.67;;;4.90;99.90;;;;;;5012081;28;20498;-76
2021/04/23 04:47:17;;;;;;;4.57;2.72;;;5.00;99.90;;;;;;5012480;28;20448;-76
2021/04/23 04:49:42;;;;;;;3.10;2.80;;;5.00;99.90;;;;;;4973553;28;20405;-77
2021/04/23 04:52:08;;;;;;;4.32;3.10;;;5.10;99.90;;;;;;5011532;28;20414;-76
2021/04/23 04:54:34;;;;;;;4.40;3.13;;;5.20;99.90;;;;;;5013451;28;20903;-76
2021/04/23 04:56:59;;;;;;;3.45;2.42;;;5.20;99.90;;;;;;5028317;28;20416;-77
2021/04/23 04:59:25;;;;;;;3.23;2.93;;;5.30;99.90;;;;;;5012874;28;20399;-75
2021/04/23 05:01:51;;;;;;;3.73;2.83;;;5.30;99.90;;;;;;5000375;28;20395;-76
2021/04/23 05:04:16;;;;;;;4.85;3.10;;;5.30;99.90;;;;;;4992252;28;20399;-77
2021/04/23 05:06:42;;;;;;;3.43;2.50;;;5.30;99.90;;;;;;4995563;28;20401;-78
2021/04/23 05:09:07;;;;;;;4.80;2.97;;;5.40;99.90;;;;;;5032043;28;20513;-77
2021/04/23 05:11:33;;;;;;;4.75;3.03;;;5.40;99.90;;;;;;4997051;28;20400;-77
2021/04/23 05:13:59;;;;;;;5.70;3.20;;;5.40;99.90;;;;;;4979696;28;20416;-76
2021/04/23 05:16:25;;;;;;;6.78;3.20;;;5.40;99.90;;;;;;5027733;28;20413;-78
2021/04/23 05:18:51;;;;;;;3.90;2.97;;;5.50;99.90;;;;;;4992654;28;20395;-80
2021/04/23 05:21:16;;;;;;;4.60;3.25;;;5.50;99.90;;;;;;4989954;28;20897;-77
2021/04/23 05:23:42;;;;;;;7.67;3.57;;;5.40;99.90;;;;;;4990683;28;20933;-76
2021/04/23 05:26:08;;;;;;;3.67;3.08;;;5.60;99.90;;;;;;5017483;28;20533;-76
2021/04/23 05:28:34;;;;;;;3.27;2.97;;;5.50;99.90;;;;;;4996518;28;24579;-76
2021/04/23 05:30:59;;;;;;;3.65;3.08;;;5.50;99.90;;;;;;5027350;28;20401;-78
2021/04/23 05:33:25;;;;;;;3.40;2.77;;;5.50;99.90;;;;;;5025396;28;20402;-76
2021/04/23 05:35:51;;;;;;;4.68;3.10;;;5.60;99.90;;;;;;4996669;28;20963;-77
2021/04/23 05:38:16;;;;;;;6.37;3.13;;;5.60;99.90;;;;;;5012203;28;20397;-75
2021/04/23 05:40:43;;;;;;;3.53;2.80;;;5.60;99.90;;;;;;5008043;28;20393;-77
2021/04/23 05:43:09;;;;;;;4.50;3.03;;;5.70;99.90;;;;;;5008021;28;20444;-77
2021/04/23 05:45:35;;;;;;;5.28;3.20;;;5.70;99.90;;;;;;4993348;28;20463;-78
2021/04/23 05:48:01;;;;;;;4.07;2.90;;;5.70;99.90;;;;;;5013101;28;20402;-78
2021/04/23 05:50:26;;;;;;;4.50;3.43;;;5.70;99.90;;;;;;5045766;28;20776;-78
2021/04/23 05:52:53;;;;;;;4.90;2.70;;;5.80;99.90;;;;;;4984727;28;20987;-79
2021/04/23 05:55:20;;;;;;;4.32;3.00;;;5.80;99.90;;;;;;4988481;28;20420;-79
2021/04/23 05:57:46;;;;;;;6.68;3.53;;;5.80;99.90;;;;;;5011762;28;20400;-78
2021/04/23 06:00:14;;;;;;;3.47;2.80;;;5.70;99.90;;;;;;4990471;28;20391;-79
2021/04/23 06:02:40;;;;;;;5.05;3.15;;;5.80;99.90;;;;;;4974822;28;20475;-78
2021/04/23 06:05:06;;;;;;;8.00;3.07;;;5.80;99.90;;;;;;4986359;28;20396;-78
2021/04/23 06:07:32;;;;;;;3.92;3.20;;;5.80;99.90;;;;;;4986986;28;20455;-79
2021/04/23 06:09:58;;;;;;;4.68;3.70;;;5.90;99.90;;;;;;5013910;28;20399;-78
2021/04/23 06:12:23;;;;;;;5.43;3.40;;;5.90;99.90;;;;;;5006432;28;20419;-78
2021/04/23 06:14:49;;;;;;;4.25;3.25;;;5.90;99.90;;;;;;5041027;28;20963;-79
2021/04/23 06:17:15;;;;;;;5.47;3.40;;;6.00;99.90;;;;;;5020566;28;20761;-79
2021/04/23 06:19:41;;;;;;;3.20;2.80;;;6.00;99.90;;;;;;5007688;28;20401;-78
2021/04/23 06:22:08;;;;;;;5.33;2.73;;;6.00;99.90;;;;;;4989103;28;20385;-78
2021/04/23 06:24:34;;;;;;;6.32;3.47;;;6.10;99.90;;;;;;5000269;28;20413;-79
2021/04/23 06:27:00;;;;;;;7.30;3.30;;;6.20;99.90;;;;;;5029355;28;20401;-78
2021/04/23 06:29:26;;;;;;;5.20;3.17;;;6.20;99.90;;;;;;4995942;28;20393;-79
2021/04/23 06:31:51;;;;;;;3.85;2.97;;;6.20;99.90;;;;;;4986239;28;20403;-79
2021/04/23 06:34:17;;;;;;;4.20;3.08;;;6.10;99.90;;;;;;4990240;28;20400;-78
2021/04/23 06:36:43;;;;;;;4.83;2.90;;;6.10;99.90;;;;;;4977546;28;20890;-78
2021/04/23 06:39:17;;;;;;;4.60;3.15;;;6.10;99.90;;;;;;5002799;28;20402;-78
2021/04/23 06:41:42;;;;;;;4.85;3.40;;;6.10;99.90;;;;;;5016439;28;20407;-79
2021/04/23 06:44:08;;;;;;;5.33;2.67;;;6.40;99.90;;;;;;5015305;28;20895;-79
2021/04/23 06:46:34;;;;;;;6.13;3.57;;;6.20;99.90;;;;;;4989990;28;20400;-79
2021/04/23 06:49:00;;;;;;;5.05;3.40;;;6.10;99.90;;;;;;5015756;28;20399;-78
2021/04/23 06:51:25;;;;;;;3.75;2.78;;;6.00;99.90;;;;;;5021812;28;20962;-78
2021/04/23 06:53:51;;;;;;;7.50;3.20;;;6.10;99.90;;;;;;5006395;28;20416;-76
2021/04/23 06:56:17;;;;;;;3.65;3.08;;;6.30;99.90;;;;;;5002061;28;20442;-76
2021/04/23 06:58:44;;;;;;;3.75;3.38;;;6.30;99.90;;;;;;4994498;28;20401;-77
2021/04/23 07:01:09;;;;;;;3.67;2.97;;;6.50;99.90;;;;;;5005202;28;20387;-77
2021/04/23 07:03:36;;;;;;;4.45;3.60;;;6.40;99.90;;;;;;5006780;28;20426;-78
2021/04/23 07:06:01;;;;;;;3.70;2.95;;;6.40;99.90;;;;;;4989350;28;21590;-77
2021/04/23 07:08:27;;;;;;;5.53;3.15;;;6.40;99.90;;;;;;5001225;28;20758;-75
2021/04/23 07:10:53;;;;;;;5.30;3.30;;;6.50;99.90;;;;;;5009958;28;20893;-77
2021/04/23 07:13:18;;;;;;;5.10;3.43;;;6.50;99.90;;;;;;5004252;28;20490;-77
2021/04/23 07:15:44;;;;;;;4.63;2.88;;;6.50;99.90;;;;;;4988987;28;20391;-76
2021/04/23 07:18:10;;;;;;;2.75;2.55;;;6.60;99.90;;;;;;4949076;28;20391;-76
2021/04/23 07:20:36;;;;;;;4.40;3.28;;;6.60;99.90;;;;;;5043367;28;21112;-77
2021/04/23 07:23:04;;;;;;;3.30;2.70;;;6.70;99.90;;;;;;5009227;28;20397;-77
2021/04/23 07:25:30;;;;;;;5.30;3.07;;;6.60;99.90;;;;;;5024279;28;20413;-76
2021/04/23 07:27:58;;;;;;;3.20;2.70;;;6.70;99.90;;;;;;5008195;28;20899;-76
2021/04/23 07:30:27;;;;;;;5.30;3.00;;;6.70;99.90;;;;;;4990823;28;20395;-77
2021/04/23 07:32:53;;;;;;;5.10;3.10;;;6.60;99.90;;;;;;5002834;28;20961;-77
2021/04/23 07:35:19;;;;;;;5.68;2.58;;;6.70;99.90;;;;;;4985768;28;20497;-75
2021/04/23 07:37:44;;;;;;;3.95;3.10;;;6.50;99.90;;;;;;5025574;28;20393;-76
2021/04/23 07:40:11;;;;;;;2.80;2.50;;;6.50;99.90;;;;;;5009946;28;20401;-76
2021/04/23 07:42:37;;;;;;;4.78;3.08;;;6.60;99.90;;;;;;5011296;28;20417;-75
2021/04/23 07:45:04;;;;;;;5.88;2.60;;;6.70;99.90;;;;;;4990247;28;25145;-76
2021/04/23 07:47:29;;;;;;;5.83;2.80;;;6.70;99.90;;;;;;5011918;28;20424;-76
2021/04/23 07:49:55;;;;;;;4.50;3.07;;;6.90;99.90;;;;;;5009374;28;20417;-76
2021/04/23 07:52:21;;;;;;;3.10;2.60;;;7.00;99.90;;;;;;4992826;28;20995;-78
2021/04/23 07:54:49;;;;;;;3.30;2.53;;;7.00;99.90;;;;;;4992338;28;20399;-78
2021/04/23 07:57:15;;;;;;;2.80;2.30;;;7.10;99.90;;;;;;5010601;28;20465;-77
2021/04/23 07:59:40;;;;;;;3.10;2.33;;;7.00;99.90;;;;;;4993558;28;20400;-77
2021/04/23 08:02:07;;;;;;;3.67;2.85;;;7.00;99.90;;;;;;5018104;28;20428;-78
2021/04/23 08:04:34;;;;;;;5.13;2.70;;;7.00;99.90;;;;;;5003788;28;20935;-78
2021/04/23 08:07:00;;;;;;;2.95;2.72;;;7.00;99.90;;;;;;5010083;28;20967;-78
2021/04/23 08:09:25;;;;;;;4.65;3.78;;;7.00;99.90;;;;;;5026267;28;20389;-78
2021/04/23 08:11:51;;;;;;;4.13;3.43;;;7.00;99.90;;;;;;5026692;28;21319;-78
2021/04/23 08:14:17;;;;;;;3.65;2.90;;;7.10;99.90;;;;;;4992663;28;20875;-76
2021/04/23 08:16:42;;;;;;;3.85;2.60;;;7.20;99.90;;;;;;5006947;28;20784;-78
2021/04/23 08:19:08;;;;;;;5.23;2.67;;;7.20;99.90;;;;;;4971168;28;20843;-78
2021/04/23 08:21:34;;;;;;;2.25;2.05;;;7.20;99.90;;;;;;5026244;28;20399;-79
2021/04/23 08:23:59;;;;;;;3.37;2.37;;;7.10;99.90;;;;;;5007015;28;20401;-77
2021/04/23 08:26:25;;;;;;;2.57;2.23;;;7.20;99.90;;;;;;5006173;28;20436;-77
2021/04/23 08:28:51;;;;;;;5.00;2.70;;;7.10;99.90;;;;;;5027043;28;20401;-77
2021/04/23 08:31:17;;;;;;;2.73;2.20;;;7.10;99.90;;;;;;5003754;28;20386;-77
2021/04/23 08:33:43;;;;;;;3.73;2.37;;;7.10;99.90;;;;;;4989216;28;20406;-77
2021/04/23 08:36:08;;;;;;;3.00;2.42;;;7.20;99.90;;;;;;4996942;28;20415;-77
2021/04/23 08:38:34;;;;;;;3.47;2.35;;;7.30;99.90;;;;;;5030329;28;20389;-76
2021/04/23 08:40:59;;;;;;;8.47;2.57;;;7.40;99.90;;;;;;5010395;28;20399;-77
2021/04/23 08:43:25;;;;;;;2.92;2.30;;;7.50;99.90;;;;;;5013784;28;20764;-75
2021/04/23 08:45:51;;;;;;;4.28;2.35;;;7.50;99.90;;;;;;5029340;28;20421;-78
2021/04/23 08:48:17;;;;;;;4.33;2.17;;;7.60;99.90;;;;;;4957621;28;20403;-78
2021/04/23 08:50:42;;;;;;;4.10;1.92;;;7.60;99.90;;;;;;5007810;28;20401;-78
2021/04/23 08:53:09;;;;;;;2.70;1.88;;;7.70;99.90;;;;;;5018711;28;20423;-78
2021/04/23 08:55:34;;;;;;;3.53;2.40;;;8.00;99.90;;;;;;4995916;28;20486;-78
2021/04/23 08:58:01;;;;;;;2.10;1.97;;;8.20;99.90;;;;;;5017204;28;21007;-77
2021/04/23 09:00:27;;;;;;;4.00;2.55;;;8.40;99.90;;;;;;4999596;28;20408;-78
2021/04/23 09:02:52;;;;;;;4.60;2.47;;;8.30;99.90;;;;;;4984804;28;20397;-78
2021/04/23 09:05:18;;;;;;;4.22;2.47;;;8.30;99.90;;;;;;5004010;28;20473;-76
2021/04/23 09:08:06;;;;;;;2.47;2.03;;;8.20;99.90;;;;;;5015766;28;20412;-77
2021/04/23 09:10:33;;;;;;;2.83;2.50;;;8.00;99.90;;;;;;4994077;28;20418;-78
2021/04/23 09:13:09;;;;;;;3.45;2.42;;;7.90;99.90;;;;;;5027732;28;20416;-77
2021/04/23 09:15:35;;;;;;;2.85;2.30;;;7.90;99.90;;;;;;4988300;28;20493;-77
2021/04/23 09:18:08;;;;;;;3.70;1.90;;;8.00;99.90;;;;;;5009304;28;20815;-77
2021/04/23 09:20:35;;;;;;;4.90;2.33;;;8.00;99.90;;;;;;5040064;28;20393;-78
2021/04/23 09:23:09;;;;;;;7.57;2.63;;;8.00;99.90;;;;;;5009760;28;20752;-78
2021/04/23 09:25:42;;;;;;;2.90;2.25;;;8.20;99.90;;;;;;4999206;28;20395;-78
2021/04/23 09:28:08;;;;;;;2.88;2.20;;;8.30;99.90;;;;;;5044845;28;20402;-78
2021/04/23 09:30:33;;;;;;;4.60;2.00;;;8.60;99.90;;;;;;5005751;28;20433;-78
2021/04/23 09:32:59;;;;;;;5.18;4.10;;;8.90;99.90;;;;;;5001099;28;20429;-78
2021/04/23 09:35:24;;;;;;;2.38;1.92;;;9.40;99.90;;;;;;5012001;28;20488;-79
2021/04/23 09:37:54;;;;;;;2.07;1.90;;;9.70;99.90;;;;;;5012934;28;20397;-79
2021/04/23 09:40:21;;;;;;;3.20;2.13;;;10.10;99.90;;;;;;5046160;28;20405;-78
2021/04/23 09:42:46;;;;;;;2.15;1.98;;;10.40;99.90;;;;;;5021929;28;20405;-78
2021/04/23 09:45:12;;;;;;;2.40;2.05;;;10.00;99.90;;;;;;5022925;28;20395;-78
2021/04/23 09:47:38;;;;;;;3.00;2.03;;;9.60;99.90;;;;;;5028559;28;20406;-77
2021/04/23 09:50:06;;;;;;;2.70;2.10;;;9.40;99.90;;;;;;4993264;28;20421;-78
2021/04/23 09:52:32;;;;;;;1.98;1.88;;;9.60;99.90;;;;;;4994338;28;20427;-78
2021/04/23 09:55:06;;;;;;;1.90;1.70;;;10.10;99.90;;;;;;4992672;28;20401;-77
2021/04/23 09:57:36;;;;;;;2.65;2.00;;;9.90;99.90;;;;;;5005304;28;20420;-78
2021/04/23 10:00:11;;;;;;;1.92;1.77;;;9.30;99.90;;;;;;5023256;28;21642;-79
2021/04/23 10:02:37;;;;;;;2.13;1.80;;;9.00;99.90;;;;;;5010106;28;20410;-78
2021/04/23 10:05:03;;;;;;;1.73;1.63;;;9.00;99.90;;;;;;4990909;28;20415;-78
2021/04/23 10:07:32;;;;;;;1.70;1.60;;;9.10;99.90;;;;;;5005631;28;20427;-79
2021/04/23 10:10:03;;;;;;;1.83;1.73;;;9.70;99.90;;;;;;5006124;28;21034;-78
2021/04/23 10:12:34;;;;;;;2.70;1.77;;;10.40;99.90;;;;;;5025449;28;20437;-79
2021/04/23 10:15:04;;;;;;;2.15;1.75;;;10.80;99.90;;;;;;5019832;28;20875;-79
2021/04/23 10:17:30;;;;;;;2.00;1.77;;;11.00;99.90;;;;;;5026417;28;20944;-79
2021/04/23 10:19:57;;;;;;;1.75;1.65;;;10.90;99.90;;;;;;4987994;28;20393;-78
2021/04/23 10:22:23;;;;;;;3.55;2.95;;;10.90;99.90;;;;;;5003159;28;20389;-78
2021/04/23 10:25:15;;;;;;;1.80;1.57;;;11.10;99.90;;;;;;5017148;28;20429;-89
2021/04/23 10:27:42;;;;;;;4.00;1.95;;;11.60;99.90;;;;;;5038883;27;20425;-89
2021/04/23 10:30:15;;;;;;;2.53;1.63;;;12.10;99.90;;;;;;5022230;28;20394;-88
2021/04/23 10:32:42;;;;;;;2.42;1.77;;;11.80;99.90;;;;;;5046707;23;20408;-78
2021/04/23 10:35:08;;;;;;;3.22;2.38;;;11.30;99.90;;;;;;4993074;28;20867;-78
2021/04/23 10:37:34;;;;;;;4.50;1.73;;;11.20;99.90;;;;;;5044482;28;20800;-77
2021/04/23 10:39:59;;;;;;;2.43;1.80;;;11.30;99.90;;;;;;5028305;28;20454;-77
2021/04/23 10:42:49;;;;;;;2.10;1.90;;;11.50;99.90;;;;;;5043512;28;20837;-78
2021/04/23 10:45:22;;;;;;;3.45;1.80;;;12.20;99.90;;;;;;5030262;28;20407;-80
2021/04/23 10:47:48;;;;;;;3.85;2.10;;;12.70;99.90;;;;;;5050404;28;20946;-84
2021/04/23 10:50:19;;;;;;;2.00;1.50;;;12.80;99.90;;;;;;5028946;28;20509;-80
2021/04/23 10:53:03;;;;;;;2.28;1.73;;;12.60;99.90;;;;;;5031500;28;20415;-81
2021/04/23 10:55:50;;;;;;;2.80;1.70;;;12.30;99.90;;;;;;5014998;28;20988;-80
2021/04/23 10:58:36;;;;;;;1.90;1.67;;;12.30;99.90;;;;;;5004928;28;20905;-80
2021/04/23 11:01:12;;;;;;;1.80;1.53;;;12.50;98.10;;;;;;5002590;28;20389;-79
2021/04/23 11:03:38;;;;;;;2.10;1.70;;;12.50;94.00;;;;;;5039000;28;20941;-78
2021/04/23 11:06:06;;;;;;;1.35;1.25;;;12.60;97.40;;;;;;5037095;28;20392;-79
2021/04/23 11:08:34;;;;;;;1.98;1.60;;;12.30;96.20;;;;;;5037426;28;20410;-79
2021/04/23 11:11:00;;;;;;;3.05;1.40;;;11.90;98.40;;;;;;5011847;28;20511;-78
2021/04/23 11:13:30;;;;;;;1.52;1.42;;;12.00;99.60;;;;;;5036699;28;20847;-77
2021/04/23 11:16:23;;;;;;;1.53;1.43;;;12.40;99.40;;;;;;5026107;28;21125;-78
2021/04/23 11:18:57;;;;;;;2.38;1.27;;;13.00;97.90;;;;;;5033849;28;20393;-79
2021/04/23 11:21:35;;;;;;;1.75;1.40;;;13.10;94.10;;;;;;5028765;28;20793;-79
2021/04/23 11:24:14;;;;;;;1.58;1.48;;;12.70;92.10;;;;;;5028350;28;20466;-79
2021/04/23 11:26:56;;;;;;;2.08;1.58;;;12.20;94.50;;;;;;5007928;28;20988;-79
2021/04/23 11:29:35;;;;;;;4.13;2.08;;;12.20;94.50;;;;;;5018650;28;20409;-79
2021/04/23 11:32:25;;;;;;;2.30;1.50;;;12.90;95.60;;;;;;5021614;28;20395;-79
2021/04/23 11:34:54;;;;;;;1.83;1.55;;;12.60;91.20;;;;;;5060775;28;20398;-78
2021/04/23 11:37:30;;;;;;;2.93;1.50;;;12.10;93.10;;;;;;5026598;28;20387;-79
2021/04/23 11:40:14;;;;;;;2.15;1.63;;;12.30;93.30;;;;;;5026750;28;20400;-78
2021/04/23 11:42:45;;;;;;;2.53;1.40;;;12.10;95.70;;;;;;5028283;28;20390;-79
2021/04/23 11:45:15;;;;;;;2.78;1.67;;;11.90;95.50;;;;;;5044912;28;20447;-79
2021/04/23 11:47:45;;;;;;;2.05;1.60;;;12.30;95.90;;;;;;5032057;28;20488;-79
2021/04/23 11:50:31;;;;;;;1.83;1.40;;;12.80;95.90;;;;;;5022011;28;20401;-80
2021/04/23 11:53:08;;;;;;;1.40;1.30;;;13.20;95.60;;;;;;5056144;28;20984;-79
2021/04/23 11:55:47;;;;;;;1.70;1.60;;;13.50;93.50;;;;;;5052476;28;20397;-78
2021/04/23 11:58:16;;;;;;;2.97;1.38;;;13.00;92.00;;;;;;5014122;28;20441;-78
2021/04/23 12:00:47;;;;;;;3.75;1.60;;;12.20;92.20;;;;;;5066686;28;20406;-78
2021/04/23 12:03:14;;;;;;;1.77;1.35;;;12.30;95.10;;;;;;5009731;28;20415;-80
2021/04/23 12:05:52;;;;;;;2.67;1.42;;;12.10;95.90;;;;;;4982419;28;20409;-79
2021/04/23 12:08:20;;;;;;;3.20;1.42;;;12.60;93.70;;;;;;5037165;28;20420;-78
2021/04/23 12:10:48;;;;;;;1.60;1.50;;;13.00;91.10;;;;;;5014467;28;20502;-79
2021/04/23 12:13:18;;;;;;;1.75;1.35;;;13.20;90.60;;;;;;5034987;28;20401;-78
2021/04/23 12:15:45;;;;;;;2.75;1.45;;;13.10;90.20;;;;;;5016368;28;20457;-79
2021/04/23 12:18:12;;;;;;;3.35;1.77;;;12.60;90.00;;;;;;5018597;28;20404;-79
2021/04/23 12:20:45;;;;;;;1.40;1.30;;;12.40;92.00;;;;;;5034216;28;20404;-78
2021/04/23 12:23:12;;;;;;;6.05;1.70;;;12.50;92.60;;;;;;5001654;28;20421;-78
2021/04/23 12:26:01;;;;;;;1.80;1.35;;;12.90;92.80;;;;;;5050150;28;20411;-80
2021/04/23 12:28:36;;;;;;;1.95;1.40;;;13.30;88.20;;;;;;5017318;28;20901;-78
2021/04/23 12:31:20;;;;;;;5.63;1.63;;;12.90;87.20;;;;;;5015114;28;20390;-79
2021/04/23 12:33:52;;;;;;;2.10;1.30;;;12.50;85.00;;;;;;5015107;28;20425;-80
2021/04/23 12:36:31;;;;;;;2.83;1.50;;;12.20;87.80;;;;;;5046917;28;21092;-79
2021/04/23 12:39:07;;;;;;;1.40;1.30;;;12.10;90.80;;;;;;5064613;28;20413;-79
2021/04/23 12:41:37;;;;;;;2.15;1.40;;;12.10;91.10;;;;;;4997988;28;20420;-79
2021/04/23 12:44:11;;;;;;;2.63;1.50;;;12.30;92.00;;;;;;5032733;28;20401;-78
2021/04/23 12:46:49;;;;;;;2.83;1.70;;;12.40;91.00;;;;;;5030011;28;20403;-78
2021/04/23 12:49:26;;;;;;;1.70;1.38;;;12.90;91.50;;;;;;5012339;28;20434;-80
2021/04/23 12:51:57;;;;;;;2.10;1.40;;;13.00;91.70;;;;;;5001540;28;20478;-78
2021/04/23 12:54:30;;;;;;;1.90;1.40;;;12.80;91.50;;;;;;4997454;28;20483;-79
2021/04/23 12:57:01;;;;;;;1.70;1.58;;;12.90;90.80;;;;;;5031202;28;20449;-80
2021/04/23 12:59:33;;;;;;;1.50;1.40;;;12.70;91.00;;;;;;5026279;28;20393;-81